sensor_id;sensor_type;location;lat;lon;timestamp;temperature;humidity
75786;DHT22;64402;44.708;37.644;2023-08-06T00:00:56;27.87;49.30
75786;DHT22;64402;44.708;37.644;2023-08-06T00:03:22;27.80;49.56
75786;DHT22;64402;44.708;37.644;2023-08-06T00:05:48;27.74;49.57
75786;DHT22;64402;44.708;37.644;2023-08-06T00:08:14;27.73;49.50
75786;DHT22;64402;44.708;37.644;2023-08-06T00:10:40;27.72;49.60
75786;DHT22;64402;44.708;37.644;2023-08-06T00:13:07;27.68;49.73
75786;DHT22;64402;44.708;37.644;2023-08-06T00:15:33;27.63;50.08
75786;DHT22;64402;44.708;37.644;2023-08-06T00:17:59;27.60;49.95
75786;DHT22;64402;44.708;37.644;2023-08-06T00:20:25;27.56;50.04
75786;DHT22;64402;44.708;37.644;2023-08-06T00:22:51;27.54;50.25
75786;DHT22;64402;44.708;37.644;2023-08-06T00:25:17;27.51;50.41
75786;DHT22;64402;44.708;37.644;2023-08-06T00:27:43;27.47;50.75
75786;DHT22;64402;44.708;37.644;2023-08-06T00:30:10;27.44;50.69
75786;DHT22;64402;44.708;37.644;2023-08-06T00:32:36;27.42;50.74
75786;DHT22;64402;44.708;37.644;2023-08-06T00:35:07;27.39;50.89
75786;DHT22;64402;44.708;37.644;2023-08-06T00:37:34;27.36;50.63
75786;DHT22;64402;44.708;37.644;2023-08-06T00:40:00;27.30;51.23
75786;DHT22;64402;44.708;37.644;2023-08-06T00:42:27;27.27;51.38
75786;DHT22;64402;44.708;37.644;2023-08-06T00:44:53;27.23;51.70
75786;DHT22;64402;44.708;37.644;2023-08-06T00:47:19;27.17;51.68
75786;DHT22;64402;44.708;37.644;2023-08-06T00:49:45;27.15;51.88
75786;DHT22;64402;44.708;37.644;2023-08-06T00:52:11;27.13;51.79
75786;DHT22;64402;44.708;37.644;2023-08-06T00:54:39;27.12;51.88
75786;DHT22;64402;44.708;37.644;2023-08-06T00:57:07;27.08;52.15
75786;DHT22;64402;44.708;37.644;2023-08-06T00:59:34;27.06;52.45
75786;DHT22;64402;44.708;37.644;2023-08-06T01:02:01;27.04;52.51
75786;DHT22;64402;44.708;37.644;2023-08-06T01:04:27;27.01;52.66
75786;DHT22;64402;44.708;37.644;2023-08-06T01:15:11;26.85;53.50
75786;DHT22;64402;44.708;37.644;2023-08-06T01:17:41;26.82;53.21
75786;DHT22;64402;44.708;37.644;2023-08-06T01:20:07;26.77;53.44
75786;DHT22;64402;44.708;37.644;2023-08-06T01:22:34;26.76;53.59
75786;DHT22;64402;44.708;37.644;2023-08-06T01:25:00;26.73;53.71
75786;DHT22;64402;44.708;37.644;2023-08-06T01:27:33;26.69;53.88
75786;DHT22;64402;44.708;37.644;2023-08-06T01:30:10;26.63;54.36
75786;DHT22;64402;44.708;37.644;2023-08-06T01:32:40;26.56;54.57
75786;DHT22;64402;44.708;37.644;2023-08-06T01:35:15;26.53;54.84
75786;DHT22;64402;44.708;37.644;2023-08-06T01:37:42;26.50;54.97
75786;DHT22;64402;44.708;37.644;2023-08-06T01:40:12;26.49;55.42
75786;DHT22;64402;44.708;37.644;2023-08-06T01:42:39;26.45;55.15
75786;DHT22;64402;44.708;37.644;2023-08-06T01:45:08;26.43;55.65
75786;DHT22;64402;44.708;37.644;2023-08-06T01:47:35;26.40;55.52
75786;DHT22;64402;44.708;37.644;2023-08-06T01:50:02;26.38;55.48
75786;DHT22;64402;44.708;37.644;2023-08-06T01:52:28;26.37;55.79
75786;DHT22;64402;44.708;37.644;2023-08-06T01:54:55;26.36;55.45
75786;DHT22;64402;44.708;37.644;2023-08-06T01:57:21;26.33;55.65
75786;DHT22;64402;44.708;37.644;2023-08-06T01:59:47;26.33;55.65
75786;DHT22;64402;44.708;37.644;2023-08-06T02:02:13;26.32;55.61
75786;DHT22;64402;44.708;37.644;2023-08-06T02:04:39;26.30;55.73
75786;DHT22;64402;44.708;37.644;2023-08-06T02:07:05;26.28;55.82
75786;DHT22;64402;44.708;37.644;2023-08-06T02:09:31;26.26;55.90
75786;DHT22;64402;44.708;37.644;2023-08-06T02:11:58;26.25;55.84
75786;DHT22;64402;44.708;37.644;2023-08-06T02:14:24;26.23;56.09
75786;DHT22;64402;44.708;37.644;2023-08-06T02:16:50;26.22;55.94
75786;DHT22;64402;44.708;37.644;2023-08-06T02:19:16;26.21;56.07
75786;DHT22;64402;44.708;37.644;2023-08-06T02:21:42;26.20;56.17
75786;DHT22;64402;44.708;37.644;2023-08-06T02:24:08;26.19;56.15
75786;DHT22;64402;44.708;37.644;2023-08-06T02:26:34;26.18;56.22
75786;DHT22;64402;44.708;37.644;2023-08-06T02:29:00;26.18;56.14
75786;DHT22;64402;44.708;37.644;2023-08-06T02:31:27;26.17;56.17
75786;DHT22;64402;44.708;37.644;2023-08-06T02:33:58;26.16;56.14
75786;DHT22;64402;44.708;37.644;2023-08-06T02:36:24;26.16;56.12
75786;DHT22;64402;44.708;37.644;2023-08-06T02:38:53;26.13;56.39
75786;DHT22;64402;44.708;37.644;2023-08-06T02:41:19;26.16;56.61
75786;DHT22;64402;44.708;37.644;2023-08-06T02:43:45;26.12;56.75
75786;DHT22;64402;44.708;37.644;2023-08-06T02:46:11;26.07;57.25
75786;DHT22;64402;44.708;37.644;2023-08-06T02:48:37;26.02;57.58
75786;DHT22;64402;44.708;37.644;2023-08-06T02:51:03;25.98;57.51
75786;DHT22;64402;44.708;37.644;2023-08-06T02:53:29;25.95;57.77
75786;DHT22;64402;44.708;37.644;2023-08-06T02:55:55;25.95;58.13
75786;DHT22;64402;44.708;37.644;2023-08-06T02:58:21;25.95;58.22
75786;DHT22;64402;44.708;37.644;2023-08-06T03:01:01;25.92;58.59
75786;DHT22;64402;44.708;37.644;2023-08-06T03:03:30;25.92;58.38
75786;DHT22;64402;44.708;37.644;2023-08-06T03:05:56;25.94;58.69
75786;DHT22;64402;44.708;37.644;2023-08-06T03:08:22;25.95;58.30
75786;DHT22;64402;44.708;37.644;2023-08-06T03:10:51;25.96;58.54
75786;DHT22;64402;44.708;37.644;2023-08-06T03:13:18;25.97;58.50
75786;DHT22;64402;44.708;37.644;2023-08-06T03:18:20;25.93;58.59
75786;DHT22;64402;44.708;37.644;2023-08-06T03:20:46;25.96;59.02
75786;DHT22;64402;44.708;37.644;2023-08-06T03:23:12;25.98;59.07
75786;DHT22;64402;44.708;37.644;2023-08-06T03:25:38;25.99;58.69
75786;DHT22;64402;44.708;37.644;2023-08-06T03:28:04;26.01;58.47
75786;DHT22;64402;44.708;37.644;2023-08-06T03:30:30;26.03;58.64
75786;DHT22;64402;44.708;37.644;2023-08-06T03:32:57;26.05;58.76
75786;DHT22;64402;44.708;37.644;2023-08-06T03:35:28;26.11;58.77
75786;DHT22;64402;44.708;37.644;2023-08-06T03:37:54;26.20;59.01
75786;DHT22;64402;44.708;37.644;2023-08-06T03:40:20;26.22;59.10
75786;DHT22;64402;44.708;37.644;2023-08-06T03:42:46;26.27;58.67
75786;DHT22;64402;44.708;37.644;2023-08-06T03:45:13;26.34;58.35
75786;DHT22;64402;44.708;37.644;2023-08-06T03:47:39;26.41;58.65
75786;DHT22;64402;44.708;37.644;2023-08-06T03:50:05;26.45;58.48
75786;DHT22;64402;44.708;37.644;2023-08-06T03:52:31;26.53;58.42
75786;DHT22;64402;44.708;37.644;2023-08-06T03:54:57;26.60;58.44
75786;DHT22;64402;44.708;37.644;2023-08-06T03:57:23;26.66;57.94
75786;DHT22;64402;44.708;37.644;2023-08-06T03:59:49;26.71;58.22
75786;DHT22;64402;44.708;37.644;2023-08-06T04:02:16;26.80;58.03
75786;DHT22;64402;44.708;37.644;2023-08-06T04:04:42;26.87;57.48
75786;DHT22;64402;44.708;37.644;2023-08-06T04:07:08;26.97;57.53
75786;DHT22;64402;44.708;37.644;2023-08-06T04:09:34;27.06;57.15
75786;DHT22;64402;44.708;37.644;2023-08-06T04:12:02;27.13;57.12
75786;DHT22;64402;44.708;37.644;2023-08-06T04:14:30;27.21;56.51
75786;DHT22;64402;44.708;37.644;2023-08-06T04:16:56;27.29;56.83
75786;DHT22;64402;44.708;37.644;2023-08-06T04:19:22;27.38;56.23
75786;DHT22;64402;44.708;37.644;2023-08-06T04:21:48;27.47;55.63
75786;DHT22;64402;44.708;37.644;2023-08-06T04:24:14;27.58;55.61
75786;DHT22;64402;44.708;37.644;2023-08-06T04:26:40;27.69;55.08
75786;DHT22;64402;44.708;37.644;2023-08-06T04:29:06;27.79;55.61
75786;DHT22;64402;44.708;37.644;2023-08-06T04:31:32;27.89;54.72
75786;DHT22;64402;44.708;37.644;2023-08-06T04:34:04;28.00;53.82
75786;DHT22;64402;44.708;37.644;2023-08-06T04:36:31;28.10;53.50
75786;DHT22;64402;44.708;37.644;2023-08-06T04:38:57;28.19;53.56
75786;DHT22;64402;44.708;37.644;2023-08-06T04:41:23;28.28;52.62
75786;DHT22;64402;44.708;37.644;2023-08-06T04:43:49;28.40;52.88
75786;DHT22;64402;44.708;37.644;2023-08-06T04:46:15;28.49;52.04
75786;DHT22;64402;44.708;37.644;2023-08-06T04:48:41;28.59;51.50
75786;DHT22;64402;44.708;37.644;2023-08-06T04:51:07;28.69;51.69
75786;DHT22;64402;44.708;37.644;2023-08-06T04:53:33;28.77;51.27
75786;DHT22;64402;44.708;37.644;2023-08-06T04:55:59;28.87;51.19
75786;DHT22;64402;44.708;37.644;2023-08-06T04:58:25;28.93;51.36
75786;DHT22;64402;44.708;37.644;2023-08-06T05:00:53;29.02;50.88
75786;DHT22;64402;44.708;37.644;2023-08-06T05:03:19;29.12;51.01
75786;DHT22;64402;44.708;37.644;2023-08-06T05:05:46;29.18;50.21
75786;DHT22;64402;44.708;37.644;2023-08-06T05:08:15;29.28;50.24
75786;DHT22;64402;44.708;37.644;2023-08-06T05:10:45;29.39;50.00
75786;DHT22;64402;44.708;37.644;2023-08-06T05:13:11;29.50;49.60
75786;DHT22;64402;44.708;37.644;2023-08-06T05:15:37;29.61;49.21
75786;DHT22;64402;44.708;37.644;2023-08-06T05:18:05;29.73;49.00
75786;DHT22;64402;44.708;37.644;2023-08-06T05:20:31;29.86;49.08
75786;DHT22;64402;44.708;37.644;2023-08-06T05:23:01;29.97;48.25
75786;DHT22;64402;44.708;37.644;2023-08-06T05:25:27;30.08;47.75
75786;DHT22;64402;44.708;37.644;2023-08-06T05:27:53;30.22;47.84
75786;DHT22;64402;44.708;37.644;2023-08-06T05:30:19;30.32;47.28
75786;DHT22;64402;44.708;37.644;2023-08-06T05:32:45;30.45;47.03
75786;DHT22;64402;44.708;37.644;2023-08-06T05:35:17;30.56;46.41
75786;DHT22;64402;44.708;37.644;2023-08-06T05:37:43;30.69;46.44
75786;DHT22;64402;44.708;37.644;2023-08-06T05:40:09;30.80;45.32
75786;DHT22;64402;44.708;37.644;2023-08-06T05:42:35;30.96;44.09
75786;DHT22;64402;44.708;37.644;2023-08-06T05:45:01;31.14;43.45
75786;DHT22;64402;44.708;37.644;2023-08-06T05:47:27;31.33;43.45
75786;DHT22;64402;44.708;37.644;2023-08-06T05:49:53;31.51;43.49
75786;DHT22;64402;44.708;37.644;2023-08-06T05:52:20;31.61;44.50
75786;DHT22;64402;44.708;37.644;2023-08-06T05:54:46;31.78;43.55
75786;DHT22;64402;44.708;37.644;2023-08-06T05:57:12;31.99;42.74
75786;DHT22;64402;44.708;37.644;2023-08-06T05:59:40;32.12;42.10
75786;DHT22;64402;44.708;37.644;2023-08-06T06:02:06;32.18;41.62
75786;DHT22;64402;44.708;37.644;2023-08-06T06:04:32;32.33;40.44
75786;DHT22;64402;44.708;37.644;2023-08-06T06:06:58;32.50;40.65
75786;DHT22;64402;44.708;37.644;2023-08-06T06:09:24;32.64;40.07
75786;DHT22;64402;44.708;37.644;2023-08-06T06:11:50;32.78;40.08
75786;DHT22;64402;44.708;37.644;2023-08-06T06:14:19;32.82;39.90
75786;DHT22;64402;44.708;37.644;2023-08-06T06:16:46;32.88;39.93
75786;DHT22;64402;44.708;37.644;2023-08-06T06:19:12;32.89;39.68
75786;DHT22;64402;44.708;37.644;2023-08-06T06:21:38;32.98;39.46
75786;DHT22;64402;44.708;37.644;2023-08-06T06:24:05;33.09;39.05
75786;DHT22;64402;44.708;37.644;2023-08-06T06:26:32;33.11;39.61
75786;DHT22;64402;44.708;37.644;2023-08-06T06:28:59;33.02;38.86
75786;DHT22;64402;44.708;37.644;2023-08-06T06:31:26;32.97;38.92
75786;DHT22;64402;44.708;37.644;2023-08-06T06:33:57;33.07;38.60
75786;DHT22;64402;44.708;37.644;2023-08-06T06:36:24;33.16;38.78
75786;DHT22;64402;44.708;37.644;2023-08-06T06:38:50;33.31;38.79
75786;DHT22;64402;44.708;37.644;2023-08-06T06:41:16;33.32;38.67
75786;DHT22;64402;44.708;37.644;2023-08-06T06:43:42;33.29;38.56
75786;DHT22;64402;44.708;37.644;2023-08-06T06:46:09;33.27;38.72
75786;DHT22;64402;44.708;37.644;2023-08-06T06:48:35;33.28;38.79
75786;DHT22;64402;44.708;37.644;2023-08-06T06:51:01;33.25;38.96
75786;DHT22;64402;44.708;37.644;2023-08-06T06:53:29;33.30;38.84
75786;DHT22;64402;44.708;37.644;2023-08-06T06:56:02;33.42;39.12
75786;DHT22;64402;44.708;37.644;2023-08-06T06:58:28;33.40;38.87
75786;DHT22;64402;44.708;37.644;2023-08-06T07:00:54;33.50;38.62
75786;DHT22;64402;44.708;37.644;2023-08-06T07:03:20;33.55;38.63
75786;DHT22;64402;44.708;37.644;2023-08-06T07:05:46;33.56;38.59
75786;DHT22;64402;44.708;37.644;2023-08-06T07:08:12;33.60;38.20
75786;DHT22;64402;44.708;37.644;2023-08-06T07:10:41;33.60;38.31
75786;DHT22;64402;44.708;37.644;2023-08-06T07:13:07;33.80;37.99
75786;DHT22;64402;44.708;37.644;2023-08-06T07:15:33;33.75;38.06
75786;DHT22;64402;44.708;37.644;2023-08-06T07:17:59;33.67;38.44
75786;DHT22;64402;44.708;37.644;2023-08-06T07:20:26;33.65;38.68
75786;DHT22;64402;44.708;37.644;2023-08-06T07:22:55;33.68;38.61
75786;DHT22;64402;44.708;37.644;2023-08-06T07:25:21;33.66;38.59
75786;DHT22;64402;44.708;37.644;2023-08-06T07:27:47;33.64;38.79
75786;DHT22;64402;44.708;37.644;2023-08-06T07:30:13;33.60;39.19
75786;DHT22;64402;44.708;37.644;2023-08-06T07:32:39;33.57;39.08
75786;DHT22;64402;44.708;37.644;2023-08-06T07:35:11;33.72;39.20
75786;DHT22;64402;44.708;37.644;2023-08-06T07:37:41;33.82;38.96
75786;DHT22;64402;44.708;37.644;2023-08-06T07:40:07;33.96;39.25
75786;DHT22;64402;44.708;37.644;2023-08-06T07:42:34;34.15;38.28
75786;DHT22;64402;44.708;37.644;2023-08-06T07:45:02;34.06;38.50
75786;DHT22;64402;44.708;37.644;2023-08-06T07:47:28;33.90;38.82
75786;DHT22;64402;44.708;37.644;2023-08-06T07:49:54;33.88;39.18
75786;DHT22;64402;44.708;37.644;2023-08-06T07:52:20;34.06;39.27
75786;DHT22;64402;44.708;37.644;2023-08-06T07:54:47;34.03;38.93
75786;DHT22;64402;44.708;37.644;2023-08-06T07:57:14;33.96;39.20
75786;DHT22;64402;44.708;37.644;2023-08-06T07:59:41;33.93;39.53
75786;DHT22;64402;44.708;37.644;2023-08-06T08:02:07;34.00;39.37
75786;DHT22;64402;44.708;37.644;2023-08-06T08:04:34;34.20;39.30
75786;DHT22;64402;44.708;37.644;2023-08-06T08:07:00;34.26;38.82
75786;DHT22;64402;44.708;37.644;2023-08-06T08:09:26;34.39;38.75
75786;DHT22;64402;44.708;37.644;2023-08-06T08:11:52;34.38;38.70
75786;DHT22;64402;44.708;37.644;2023-08-06T08:14:18;34.35;39.07
75786;DHT22;64402;44.708;37.644;2023-08-06T08:16:45;34.35;38.98
75786;DHT22;64402;44.708;37.644;2023-08-06T08:19:11;34.35;38.98
75786;DHT22;64402;44.708;37.644;2023-08-06T08:21:37;34.39;39.05
75786;DHT22;64402;44.708;37.644;2023-08-06T08:24:04;34.34;39.55
75786;DHT22;64402;44.708;37.644;2023-08-06T08:26:31;34.40;39.11
75786;DHT22;64402;44.708;37.644;2023-08-06T08:28:57;34.39;39.45
75786;DHT22;64402;44.708;37.644;2023-08-06T08:31:23;34.51;39.29
75786;DHT22;64402;44.708;37.644;2023-08-06T08:33:55;34.56;39.02
75786;DHT22;64402;44.708;37.644;2023-08-06T08:36:21;34.56;38.61
75786;DHT22;64402;44.708;37.644;2023-08-06T08:38:47;34.41;38.59
75786;DHT22;64402;44.708;37.644;2023-08-06T08:41:15;34.41;39.20
75786;DHT22;64402;44.708;37.644;2023-08-06T08:43:42;34.55;38.72
75786;DHT22;64402;44.708;37.644;2023-08-06T08:46:09;34.92;37.63
75786;DHT22;64402;44.708;37.644;2023-08-06T08:48:37;36.03;35.45
75786;DHT22;64402;44.708;37.644;2023-08-06T08:51:03;37.50;32.77
75786;DHT22;64402;44.708;37.644;2023-08-06T08:53:30;38.65;30.34
75786;DHT22;64402;44.708;37.644;2023-08-06T08:55:57;39.72;28.48
75786;DHT22;64402;44.708;37.644;2023-08-06T08:58:24;40.24;27.08
75786;DHT22;64402;44.708;37.644;2023-08-06T09:00:50;40.67;26.69
75786;DHT22;64402;44.708;37.644;2023-08-06T09:03:17;41.09;26.19
75786;DHT22;64402;44.708;37.644;2023-08-06T09:05:44;40.99;25.51
75786;DHT22;64402;44.708;37.644;2023-08-06T09:08:12;41.30;25.56
75786;DHT22;64402;44.708;37.644;2023-08-06T09:10:41;41.56;25.49
75786;DHT22;64402;44.708;37.644;2023-08-06T09:13:09;41.76;25.35
75786;DHT22;64402;44.708;37.644;2023-08-06T09:15:35;42.18;25.13
75786;DHT22;64402;44.708;37.644;2023-08-06T09:18:09;42.60;23.75
75786;DHT22;64402;44.708;37.644;2023-08-06T09:20:40;42.93;23.64
75786;DHT22;64402;44.708;37.644;2023-08-06T09:23:10;43.56;22.53
75786;DHT22;64402;44.708;37.644;2023-08-06T09:25:48;43.54;22.76
75786;DHT22;64402;44.708;37.644;2023-08-06T09:28:15;43.87;22.50
75786;DHT22;64402;44.708;37.644;2023-08-06T09:30:41;43.86;22.25
75786;DHT22;64402;44.708;37.644;2023-08-06T09:33:08;43.94;22.21
75786;DHT22;64402;44.708;37.644;2023-08-06T09:35:46;44.26;21.24
75786;DHT22;64402;44.708;37.644;2023-08-06T09:38:18;44.17;22.17
75786;DHT22;64402;44.708;37.644;2023-08-06T09:40:49;44.77;21.12
75786;DHT22;64402;44.708;37.644;2023-08-06T09:43:22;44.61;20.63
75786;DHT22;64402;44.708;37.644;2023-08-06T09:45:55;45.18;20.31
75786;DHT22;64402;44.708;37.644;2023-08-06T09:48:26;45.20;20.62
75786;DHT22;64402;44.708;37.644;2023-08-06T09:50:58;45.62;19.81
75786;DHT22;64402;44.708;37.644;2023-08-06T09:53:29;45.74;19.32
75786;DHT22;64402;44.708;37.644;2023-08-06T09:56:01;46.69;18.32
75786;DHT22;64402;44.708;37.644;2023-08-06T09:58:33;47.03;17.32
75786;DHT22;64402;44.708;37.644;2023-08-06T10:01:04;47.62;16.45
75786;DHT22;64402;44.708;37.644;2023-08-06T10:03:36;47.73;16.23
75786;DHT22;64402;44.708;37.644;2023-08-06T10:06:09;47.35;17.09
75786;DHT22;64402;44.708;37.644;2023-08-06T10:08:41;47.35;16.42
75786;DHT22;64402;44.708;37.644;2023-08-06T10:11:13;47.83;15.53
75786;DHT22;64402;44.708;37.644;2023-08-06T10:13:46;48.42;15.35
75786;DHT22;64402;44.708;37.644;2023-08-06T10:16:18;48.36;15.48
75786;DHT22;64402;44.708;37.644;2023-08-06T10:18:50;47.85;15.23
75786;DHT22;64402;44.708;37.644;2023-08-06T10:21:23;48.03;14.74
75786;DHT22;64402;44.708;37.644;2023-08-06T10:23:55;48.02;15.04
75786;DHT22;64402;44.708;37.644;2023-08-06T10:26:27;47.88;16.33
75786;DHT22;64402;44.708;37.644;2023-08-06T10:28:59;47.79;15.48
75786;DHT22;64402;44.708;37.644;2023-08-06T10:31:55;47.70;15.76
75786;DHT22;64402;44.708;37.644;2023-08-06T10:34:57;46.78;17.19
75786;DHT22;64402;44.708;37.644;2023-08-06T10:37:38;46.92;16.54
75786;DHT22;64402;44.708;37.644;2023-08-06T10:40:06;46.78;16.23
75786;DHT22;64402;44.708;37.644;2023-08-06T10:42:33;47.33;15.23
75786;DHT22;64402;44.708;37.644;2023-08-06T10:45:14;46.62;16.20
75786;DHT22;64402;44.708;37.644;2023-08-06T10:47:45;46.63;16.54
75786;DHT22;64402;44.708;37.644;2023-08-06T10:50:16;46.24;16.69
75786;DHT22;64402;44.708;37.644;2023-08-06T10:52:44;46.83;15.74
75786;DHT22;64402;44.708;37.644;2023-08-06T10:55:11;47.32;15.80
75786;DHT22;64402;44.708;37.644;2023-08-06T10:57:39;47.47;15.31
75786;DHT22;64402;44.708;37.644;2023-08-06T11:00:07;47.73;14.55
75786;DHT22;64402;44.708;37.644;2023-08-06T11:02:35;47.39;15.97
75786;DHT22;64402;44.708;37.644;2023-08-06T11:05:06;47.81;14.63
75786;DHT22;64402;44.708;37.644;2023-08-06T11:07:35;48.43;14.10
75786;DHT22;64402;44.708;37.644;2023-08-06T11:10:07;49.09;13.29
75786;DHT22;64402;44.708;37.644;2023-08-06T11:12:34;49.15;13.42
75786;DHT22;64402;44.708;37.644;2023-08-06T11:15:02;48.50;13.55
75786;DHT22;64402;44.708;37.644;2023-08-06T11:17:29;48.21;14.31
75786;DHT22;64402;44.708;37.644;2023-08-06T11:19:58;48.50;14.02
75786;DHT22;64402;44.708;37.644;2023-08-06T11:22:25;48.28;14.59
75786;DHT22;64402;44.708;37.644;2023-08-06T11:24:53;49.53;13.20
75786;DHT22;64402;44.708;37.644;2023-08-06T11:27:19;49.44;12.95
75786;DHT22;64402;44.708;37.644;2023-08-06T11:29:46;49.01;13.50
75786;DHT22;64402;44.708;37.644;2023-08-06T11:32:12;49.58;13.21
75786;DHT22;64402;44.708;37.644;2023-08-06T11:34:39;49.78;12.68
75786;DHT22;64402;44.708;37.644;2023-08-06T11:37:07;49.17;13.05
75786;DHT22;64402;44.708;37.644;2023-08-06T11:39:37;49.83;13.12
75786;DHT22;64402;44.708;37.644;2023-08-06T11:42:05;50.37;12.04
75786;DHT22;64402;44.708;37.644;2023-08-06T11:44:35;50.91;11.07
75786;DHT22;64402;44.708;37.644;2023-08-06T11:47:03;51.11;11.28
75786;DHT22;64402;44.708;37.644;2023-08-06T11:52:20;51.61;10.56
75786;DHT22;64402;44.708;37.644;2023-08-06T11:54:48;50.79;11.26
75786;DHT22;64402;44.708;37.644;2023-08-06T11:57:25;50.28;11.80
75786;DHT22;64402;44.708;37.644;2023-08-06T11:59:53;50.60;11.40
75786;DHT22;64402;44.708;37.644;2023-08-06T12:02:21;51.04;11.20
75786;DHT22;64402;44.708;37.644;2023-08-06T12:05:04;49.78;12.28
75786;DHT22;64402;44.708;37.644;2023-08-06T12:07:32;49.52;12.41
75786;DHT22;64402;44.708;37.644;2023-08-06T12:09:59;49.74;12.16
75786;DHT22;64402;44.708;37.644;2023-08-06T12:12:26;49.78;12.17
75786;DHT22;64402;44.708;37.644;2023-08-06T12:14:53;49.87;12.10
75786;DHT22;64402;44.708;37.644;2023-08-06T12:17:20;50.41;11.36
75786;DHT22;64402;44.708;37.644;2023-08-06T12:19:46;49.93;11.98
75786;DHT22;64402;44.708;37.644;2023-08-06T12:22:14;48.53;13.31
75786;DHT22;64402;44.708;37.644;2023-08-06T12:24:42;47.64;14.08
75786;DHT22;64402;44.708;37.644;2023-08-06T12:27:09;47.33;14.87
75786;DHT22;64402;44.708;37.644;2023-08-06T12:29:41;47.76;13.68
75786;DHT22;64402;44.708;37.644;2023-08-06T12:32:09;47.62;13.74
75786;DHT22;64402;44.708;37.644;2023-08-06T12:34:40;47.88;13.63
75786;DHT22;64402;44.708;37.644;2023-08-06T12:37:07;48.68;12.96
75786;DHT22;64402;44.708;37.644;2023-08-06T12:39:35;49.01;13.02
75786;DHT22;64402;44.708;37.644;2023-08-06T12:42:03;48.98;12.79
75786;DHT22;64402;44.708;37.644;2023-08-06T12:44:30;48.54;13.17
75786;DHT22;64402;44.708;37.644;2023-08-06T12:46:57;48.08;13.70
75786;DHT22;64402;44.708;37.644;2023-08-06T12:49:25;48.13;13.18
75786;DHT22;64402;44.708;37.644;2023-08-06T12:51:53;46.91;14.74
75786;DHT22;64402;44.708;37.644;2023-08-06T12:54:21;45.62;16.28
75786;DHT22;64402;44.708;37.644;2023-08-06T12:56:48;45.94;15.58
75786;DHT22;64402;44.708;37.644;2023-08-06T12:59:15;46.44;15.14
75786;DHT22;64402;44.708;37.644;2023-08-06T13:01:43;46.73;15.03
75786;DHT22;64402;44.708;37.644;2023-08-06T13:04:10;46.72;15.12
75786;DHT22;64402;44.708;37.644;2023-08-06T13:06:37;46.02;15.92
75786;DHT22;64402;44.708;37.644;2023-08-06T13:09:06;46.53;15.23
75786;DHT22;64402;44.708;37.644;2023-08-06T13:11:39;46.94;14.81
75786;DHT22;64402;44.708;37.644;2023-08-06T13:14:07;47.50;14.25
75786;DHT22;64402;44.708;37.644;2023-08-06T13:16:35;46.78;15.03
75786;DHT22;64402;44.708;37.644;2023-08-06T13:19:03;45.89;16.01
75786;DHT22;64402;44.708;37.644;2023-08-06T13:24:12;46.78;15.10
75786;DHT22;64402;44.708;37.644;2023-08-06T13:26:38;46.27;15.58
75786;DHT22;64402;44.708;37.644;2023-08-06T13:29:05;46.21;15.77
75786;DHT22;64402;44.708;37.644;2023-08-06T13:31:33;46.79;14.70
75786;DHT22;64402;44.708;37.644;2023-08-06T13:33:59;46.77;14.75
75786;DHT22;64402;44.708;37.644;2023-08-06T13:36:26;46.38;15.39
75786;DHT22;64402;44.708;37.644;2023-08-06T13:38:53;46.37;15.35
75786;DHT22;64402;44.708;37.644;2023-08-06T13:41:20;46.17;15.62
75786;DHT22;64402;44.708;37.644;2023-08-06T13:43:46;45.89;16.04
75786;DHT22;64402;44.708;37.644;2023-08-06T13:46:13;45.78;16.47
75786;DHT22;64402;44.708;37.644;2023-08-06T13:48:45;45.90;16.35
75786;DHT22;64402;44.708;37.644;2023-08-06T13:51:12;45.87;16.22
75786;DHT22;64402;44.708;37.644;2023-08-06T13:53:39;45.74;16.74
75786;DHT22;64402;44.708;37.644;2023-08-06T13:56:06;45.62;16.82
75786;DHT22;64402;44.708;37.644;2023-08-06T13:58:33;44.54;18.09
75786;DHT22;64402;44.708;37.644;2023-08-06T14:01:00;44.17;18.70
75786;DHT22;64402;44.708;37.644;2023-08-06T14:03:26;44.48;18.41
75786;DHT22;64402;44.708;37.644;2023-08-06T14:05:52;44.44;18.32
75786;DHT22;64402;44.708;37.644;2023-08-06T14:08:21;44.61;18.35
75786;DHT22;64402;44.708;37.644;2023-08-06T14:10:48;44.89;17.86
75786;DHT22;64402;44.708;37.644;2023-08-06T14:13:15;44.82;18.04
75786;DHT22;64402;44.708;37.644;2023-08-06T14:15:41;44.60;18.35
75786;DHT22;64402;44.708;37.644;2023-08-06T14:18:08;44.13;19.10
75786;DHT22;64402;44.708;37.644;2023-08-06T14:20:34;43.48;19.88
75786;DHT22;64402;44.708;37.644;2023-08-06T14:23:01;43.88;19.57
75786;DHT22;64402;44.708;37.644;2023-08-06T14:25:27;43.93;19.60
75786;DHT22;64402;44.708;37.644;2023-08-06T14:27:54;43.78;19.90
75786;DHT22;64402;44.708;37.644;2023-08-06T14:30:21;44.12;19.32
75786;DHT22;64402;44.708;37.644;2023-08-06T14:32:48;44.43;18.85
75786;DHT22;64402;44.708;37.644;2023-08-06T14:35:15;43.43;20.66
75786;DHT22;64402;44.708;37.644;2023-08-06T14:37:41;43.51;20.49
75786;DHT22;64402;44.708;37.644;2023-08-06T14:40:08;43.41;20.12
75786;DHT22;64402;44.708;37.644;2023-08-06T14:42:35;43.17;21.03
75786;DHT22;64402;44.708;37.644;2023-08-06T14:45:02;42.61;21.57
75786;DHT22;64402;44.708;37.644;2023-08-06T14:47:28;42.65;21.11
75786;DHT22;64402;44.708;37.644;2023-08-06T14:49:55;42.78;21.15
75786;DHT22;64402;44.708;37.644;2023-08-06T14:52:21;42.73;21.31
75786;DHT22;64402;44.708;37.644;2023-08-06T14:54:48;42.54;21.69
75786;DHT22;64402;44.708;37.644;2023-08-06T14:57:18;42.35;22.35
75786;DHT22;64402;44.708;37.644;2023-08-06T14:59:44;42.33;22.43
75786;DHT22;64402;44.708;37.644;2023-08-06T15:02:10;41.87;22.93
75786;DHT22;64402;44.708;37.644;2023-08-06T15:04:37;41.80;23.67
75786;DHT22;64402;44.708;37.644;2023-08-06T15:07:03;42.04;23.16
75786;DHT22;64402;44.708;37.644;2023-08-06T15:09:29;42.13;23.07
75786;DHT22;64402;44.708;37.644;2023-08-06T15:11:56;41.85;23.38
75786;DHT22;64402;44.708;37.644;2023-08-06T15:14:22;41.89;23.57
75786;DHT22;64402;44.708;37.644;2023-08-06T15:16:49;41.51;24.04
75786;DHT22;64402;44.708;37.644;2023-08-06T15:19:17;41.32;24.59
75786;DHT22;64402;44.708;37.644;2023-08-06T15:21:43;41.25;24.53
75786;DHT22;64402;44.708;37.644;2023-08-06T15:24:10;41.37;25.35
75786;DHT22;64402;44.708;37.644;2023-08-06T15:26:36;40.78;26.50
75786;DHT22;64402;44.708;37.644;2023-08-06T15:29:03;40.45;27.36
75786;DHT22;64402;44.708;37.644;2023-08-06T15:31:35;40.71;26.92
75786;DHT22;64402;44.708;37.644;2023-08-06T15:34:01;40.68;26.70